Time;durP1;ratioP1;P1;durP2;ratioP2;P2;SDS_P1;SDS_P2;PMS_P1;PMS_P2;Temp;Humidity;BMP_temperature;BMP_pressure;BME280_temperature;BME280_humidity;BME280_pressure;Samples;Min_cycle;Max_cycle;Signal;HPM_P1;HPM_P2
2022/03/26 00:00:16;;;;;;;80.00;37.88;;;4.40;99.90;;;;;;6271715;22;20024;-72
2022/03/26 00:02:43;;;;;;;66.65;34.38;;;4.40;99.90;;;;;;6270349;22;20115;-71
2022/03/26 00:05:09;;;;;;;75.00;35.20;;;4.40;99.90;;;;;;6270375;22;20059;-73
2022/03/26 00:07:34;;;;;;;74.25;36.92;;;4.30;99.90;;;;;;6272135;22;20357;-72
2022/03/26 00:10:00;;;;;;;68.25;33.70;;;4.30;99.90;;;;;;6270166;22;20008;-72
2022/03/26 00:12:26;;;;;;;70.13;34.78;;;4.30;99.90;;;;;;6271862;22;20023;-72
2022/03/26 00:14:51;;;;;;;73.88;36.55;;;4.20;99.90;;;;;;6271914;22;20115;-73
2022/03/26 00:17:17;;;;;;;71.82;37.25;;;4.20;99.90;;;;;;6272034;22;20070;-72
2022/03/26 00:19:43;;;;;;;88.60;38.28;;;4.20;99.90;;;;;;6272060;22;20051;-72
2022/03/26 00:22:09;;;;;;;71.68;36.40;;;4.20;99.90;;;;;;6272256;22;20015;-73
2022/03/26 00:24:34;;;;;;;70.35;36.05;;;4.20;99.90;;;;;;6272294;22;20027;-72
2022/03/26 00:27:00;;;;;;;78.50;39.80;;;4.20;99.90;;;;;;6270547;22;20345;-72
2022/03/26 00:29:25;;;;;;;76.78;39.80;;;4.00;99.90;;;;;;6270323;22;20464;-72
2022/03/26 00:31:51;;;;;;;85.45;44.13;;;4.00;99.90;;;;;;6271991;22;20016;-73
2022/03/26 00:34:17;;;;;;;89.10;43.90;;;4.00;99.90;;;;;;6272086;22;20026;-72
2022/03/26 00:36:42;;;;;;;93.78;44.00;;;4.00;99.90;;;;;;6270225;22;20048;-73
2022/03/26 00:39:08;;;;;;;92.38;44.88;;;4.00;99.90;;;;;;6274430;22;20370;-76
2022/03/26 00:41:34;;;;;;;89.90;42.25;;;4.00;99.90;;;;;;6272696;22;20019;-72
2022/03/26 00:44:01;;;;;;;103.38;49.30;;;4.00;99.90;;;;;;6274435;22;20022;-72
2022/03/26 00:46:27;;;;;;;96.28;44.63;;;4.00;99.90;;;;;;6273968;22;20383;-72
2022/03/26 00:48:56;;;;;;;98.15;46.80;;;4.00;99.90;;;;;;6274135;22;20051;-72
2022/03/26 00:51:22;;;;;;;90.28;46.17;;;4.00;99.90;;;;;;6272424;22;20445;-75
2022/03/26 00:53:48;;;;;;;99.18;45.35;;;4.00;99.90;;;;;;6272845;22;20023;-72
2022/03/26 00:56:15;;;;;;;101.78;48.55;;;4.10;99.90;;;;;;6274532;22;20372;-72
2022/03/26 00:58:40;;;;;;;109.35;51.10;;;3.90;99.90;;;;;;6274020;22;20027;-73
2022/03/26 01:01:07;;;;;;;105.90;48.10;;;3.90;99.90;;;;;;6274059;22;20016;-73
2022/03/26 01:03:33;;;;;;;94.10;46.47;;;3.90;99.90;;;;;;6273570;22;20012;-73
2022/03/26 01:05:59;;;;;;;94.00;46.22;;;3.90;99.90;;;;;;6273997;22;20027;-73
2022/03/26 01:08:25;;;;;;;99.60;45.22;;;3.90;99.90;;;;;;6274374;22;20019;-73
2022/03/26 01:10:51;;;;;;;79.57;37.90;;;3.90;99.90;;;;;;6274107;22;20264;-73
2022/03/26 01:13:16;;;;;;;73.97;39.75;;;3.80;99.90;;;;;;6273561;22;20024;-72
2022/03/26 01:15:43;;;;;;;88.18;42.30;;;3.70;99.90;;;;;;6272201;22;20014;-74
2022/03/26 01:18:09;;;;;;;90.15;42.53;;;3.70;99.90;;;;;;6272842;22;20515;-73
2022/03/26 01:20:35;;;;;;;95.07;44.40;;;3.70;99.90;;;;;;6274136;22;20443;-73
2022/03/26 01:23:01;;;;;;;91.35;43.35;;;3.70;99.90;;;;;;6273923;22;20043;-76
2022/03/26 01:25:27;;;;;;;76.00;37.28;;;3.70;99.90;;;;;;6271647;22;20054;-75
2022/03/26 01:27:52;;;;;;;99.95;45.20;;;3.60;99.90;;;;;;6273224;22;20406;-73
2022/03/26 01:30:18;;;;;;;79.43;39.30;;;3.60;99.90;;;;;;6271254;22;20020;-73
2022/03/26 01:32:44;;;;;;;89.70;42.55;;;3.50;99.90;;;;;;6273131;22;20023;-73
2022/03/26 01:35:11;;;;;;;88.13;41.63;;;3.60;99.90;;;;;;6273348;22;20121;-73
2022/03/26 01:37:37;;;;;;;82.80;39.53;;;3.50;99.90;;;;;;6271479;22;20030;-74
2022/03/26 01:40:04;;;;;;;73.43;38.28;;;3.50;99.90;;;;;;6273293;22;20023;-73
2022/03/26 01:42:30;;;;;;;79.57;39.13;;;3.50;99.90;;;;;;6273260;22;20015;-73
2022/03/26 01:44:56;;;;;;;82.78;40.10;;;3.40;99.90;;;;;;6271518;22;20023;-74
2022/03/26 01:47:21;;;;;;;87.80;40.45;;;3.40;99.90;;;;;;6273226;22;20069;-74
2022/03/26 01:49:47;;;;;;;92.35;43.65;;;3.60;99.90;;;;;;6270894;22;20082;-72
2022/03/26 01:52:13;;;;;;;80.63;40.38;;;3.40;99.90;;;;;;6271603;22;20024;-73
2022/03/26 01:54:40;;;;;;;91.78;42.55;;;3.30;99.90;;;;;;6273633;22;20026;-73
2022/03/26 01:57:07;;;;;;;89.38;41.05;;;3.20;99.90;;;;;;6273620;22;20360;-74
2022/03/26 01:59:33;;;;;;;96.43;45.08;;;3.20;99.90;;;;;;6271097;22;20015;-73
2022/03/26 02:01:59;;;;;;;110.90;48.05;;;3.20;99.90;;;;;;6271388;22;20502;-73
2022/03/26 02:04:25;;;;;;;97.97;45.83;;;3.10;99.90;;;;;;6273032;22;20035;-75
2022/03/26 02:06:50;;;;;;;116.75;51.92;;;3.20;99.90;;;;;;6271823;22;20011;-73
2022/03/26 02:09:16;;;;;;;108.50;47.22;;;3.10;99.90;;;;;;6271390;22;20055;-73
2022/03/26 02:11:45;;;;;;;105.13;47.50;;;3.20;99.90;;;;;;6273220;22;20030;-73
2022/03/26 02:14:12;;;;;;;102.15;47.28;;;3.20;99.90;;;;;;6271462;22;20046;-73
2022/03/26 02:16:40;;;;;;;109.28;48.67;;;3.10;99.90;;;;;;6273344;22;20019;-74
2022/03/26 02:19:07;;;;;;;102.13;48.63;;;3.10;99.90;;;;;;6272972;22;20736;-75
2022/03/26 02:21:34;;;;;;;104.95;48.67;;;3.10;99.90;;;;;;6270867;22;20046;-77
2022/03/26 02:24:06;;;;;;;112.38;51.10;;;3.10;99.90;;;;;;6273124;22;20020;-74
2022/03/26 02:26:32;;;;;;;117.97;53.78;;;3.10;99.90;;;;;;6271058;22;20062;-78
2022/03/26 02:29:08;;;;;;;115.20;51.05;;;3.10;99.90;;;;;;6271117;22;20065;-76
2022/03/26 02:31:34;;;;;;;122.43;52.92;;;3.00;99.90;;;;;;6273120;22;20062;-78
2022/03/26 02:34:00;;;;;;;119.18;53.55;;;3.00;99.90;;;;;;6272617;22;20456;-78
2022/03/26 02:36:26;;;;;;;115.47;54.30;;;3.00;99.90;;;;;;6272280;22;20039;-78
2022/03/26 02:38:52;;;;;;;128.20;57.50;;;2.90;99.90;;;;;;6273067;22;20377;-78
2022/03/26 02:41:17;;;;;;;132.73;56.70;;;2.90;99.90;;;;;;6273133;22;20444;-76
2022/03/26 02:43:43;;;;;;;133.63;59.28;;;2.90;99.90;;;;;;6272719;22;20030;-78
2022/03/26 02:46:09;;;;;;;133.23;59.45;;;2.90;99.90;;;;;;6272701;22;20522;-75
2022/03/26 02:48:35;;;;;;;124.68;55.78;;;2.90;99.90;;;;;;6270853;22;20028;-77
2022/03/26 02:51:01;;;;;;;124.32;55.67;;;2.90;99.90;;;;;;6270362;22;20024;-75
2022/03/26 02:53:27;;;;;;;110.70;49.20;;;2.80;99.90;;;;;;6272596;22;20026;-74
2022/03/26 02:55:53;;;;;;;103.72;48.63;;;2.70;99.90;;;;;;6269651;22;20562;-74
2022/03/26 02:58:19;;;;;;;116.95;50.88;;;2.70;99.90;;;;;;6272564;22;20031;-74
2022/03/26 03:00:45;;;;;;;124.10;52.85;;;2.70;99.90;;;;;;6270222;22;20022;-78
2022/03/26 03:03:10;;;;;;;109.10;49.63;;;2.70;99.90;;;;;;6272585;22;20012;-75
2022/03/26 03:05:36;;;;;;;106.15;48.17;;;2.60;99.90;;;;;;6271894;22;20019;-73
2022/03/26 03:08:02;;;;;;;108.82;48.75;;;2.60;99.90;;;;;;6272411;22;20012;-73
2022/03/26 03:10:30;;;;;;;118.35;52.30;;;2.60;99.90;;;;;;6272547;22;20097;-73
2022/03/26 03:12:56;;;;;;;123.75;54.33;;;2.60;99.90;;;;;;6271216;22;20019;-73
2022/03/26 03:15:22;;;;;;;131.27;57.63;;;2.60;99.90;;;;;;6270437;22;20115;-79
2022/03/26 03:17:49;;;;;;;126.90;54.50;;;2.60;99.90;;;;;;6270157;22;20085;-75
2022/03/26 03:20:15;;;;;;;129.98;56.08;;;2.60;99.90;;;;;;6270463;22;20631;-75
2022/03/26 03:22:42;;;;;;;136.65;58.35;;;2.60;99.90;;;;;;6244063;22;20105;-76
2022/03/26 03:25:10;;;;;;;127.45;57.35;;;2.60;99.90;;;;;;6272559;22;20038;-74
2022/03/26 03:27:36;;;;;;;158.55;62.33;;;2.60;99.90;;;;;;6272558;22;20087;-73
2022/03/26 03:30:03;;;;;;;145.00;61.38;;;2.60;99.90;;;;;;6272448;22;20023;-73
2022/03/26 03:32:29;;;;;;;124.30;55.88;;;2.50;99.90;;;;;;6272274;22;20023;-73
2022/03/26 03:34:56;;;;;;;131.70;57.45;;;2.50;99.90;;;;;;6270925;22;20039;-74
2022/03/26 03:37:23;;;;;;;129.40;55.10;;;2.50;99.90;;;;;;6271694;22;20027;-73
2022/03/26 03:39:49;;;;;;;142.27;60.28;;;2.50;99.90;;;;;;6272584;22;20088;-73
2022/03/26 03:42:15;;;;;;;125.18;55.55;;;2.50;99.90;;;;;;6272259;22;20026;-73
2022/03/26 03:44:41;;;;;;;139.63;59.13;;;2.50;99.90;;;;;;6270797;22;20015;-77
2022/03/26 03:47:06;;;;;;;165.95;68.82;;;2.40;99.90;;;;;;6272507;22;20015;-74
2022/03/26 03:49:32;;;;;;;162.00;68.70;;;2.50;99.90;;;;;;6272566;22;20085;-73
2022/03/26 03:51:58;;;;;;;165.60;70.53;;;2.60;99.90;;;;;;6272064;22;20454;-73
2022/03/26 03:54:25;;;;;;;154.02;63.70;;;2.60;99.90;;;;;;6272030;22;20095;-73
2022/03/26 03:56:51;;;;;;;138.15;59.25;;;2.60;99.90;;;;;;6272269;22;20024;-78
2022/03/26 03:59:16;;;;;;;134.25;55.45;;;2.60;99.90;;;;;;6271425;22;20073;-74
2022/03/26 04:01:42;;;;;;;121.93;53.58;;;2.50;99.90;;;;;;6271955;22;20012;-72
2022/03/26 04:04:07;;;;;;;117.95;52.35;;;2.50;99.90;;;;;;6272145;22;20024;-72
2022/03/26 04:06:33;;;;;;;129.25;53.03;;;2.40;99.90;;;;;;6272379;22;20012;-73
2022/03/26 04:08:59;;;;;;;120.25;52.28;;;2.40;99.90;;;;;;6271956;22;20028;-72
2022/03/26 04:11:24;;;;;;;133.52;58.20;;;2.40;99.90;;;;;;6244597;22;20110;-73
2022/03/26 04:13:53;;;;;;;134.88;56.53;;;2.40;99.90;;;;;;6272544;22;20046;-73
2022/03/26 04:16:20;;;;;;;152.02;59.53;;;2.40;99.90;;;;;;6272206;22;20504;-73
2022/03/26 04:18:46;;;;;;;164.85;65.15;;;2.70;99.90;;;;;;6274060;22;20059;-75
2022/03/26 04:21:11;;;;;;;170.57;67.53;;;2.40;99.90;;;;;;6271967;22;20038;-78
2022/03/26 04:23:37;;;;;;;151.52;61.33;;;2.40;99.90;;;;;;6274055;22;20348;-72
2022/03/26 04:26:03;;;;;;;136.20;57.80;;;2.40;99.90;;;;;;6271359;22;20012;-76
2022/03/26 04:28:29;;;;;;;143.07;59.45;;;2.40;99.90;;;;;;6274039;22;20083;-74
2022/03/26 04:30:54;;;;;;;150.30;61.15;;;2.30;99.90;;;;;;6273739;22;20024;-77
2022/03/26 04:33:20;;;;;;;161.02;63.53;;;2.20;99.90;;;;;;6274200;22;20008;-72
2022/03/26 04:35:46;;;;;;;155.32;65.05;;;2.20;99.90;;;;;;6273881;22;20038;-75
2022/03/26 04:38:11;;;;;;;227.35;84.53;;;2.30;99.90;;;;;;6272275;22;20452;-73
2022/03/26 04:40:37;;;;;;;164.20;63.00;;;2.50;99.90;;;;;;6271866;22;20035;-73
2022/03/26 04:43:03;;;;;;;162.45;63.55;;;2.40;99.90;;;;;;6273706;22;20022;-75
2022/03/26 04:45:30;;;;;;;147.60;62.25;;;2.30;99.90;;;;;;6274235;22;20077;-73
2022/03/26 04:47:56;;;;;;;143.82;61.05;;;2.30;99.90;;;;;;6273820;22;20863;-73
2022/03/26 04:50:21;;;;;;;169.60;68.88;;;2.30;99.90;;;;;;6271826;22;20026;-77
2022/03/26 04:52:48;;;;;;;144.27;60.25;;;2.30;99.90;;;;;;6273531;22;20020;-73
2022/03/26 04:55:14;;;;;;;131.98;56.92;;;2.30;99.90;;;;;;6271949;22;20029;-72
2022/03/26 04:57:44;;;;;;;126.00;55.20;;;2.20;99.90;;;;;;6273919;22;20050;-73
2022/03/26 05:00:12;;;;;;;122.20;52.67;;;2.20;99.90;;;;;;6272397;22;20065;-72
2022/03/26 05:02:38;;;;;;;121.03;52.35;;;2.10;99.90;;;;;;6274051;22;20430;-73
2022/03/26 05:05:05;;;;;;;117.20;51.03;;;2.00;99.90;;;;;;6274264;22;20027;-74
2022/03/26 05:07:46;;;;;;;119.60;51.95;;;2.00;99.90;;;;;;6272285;22;20453;-73
2022/03/26 05:10:15;;;;;;;141.60;58.78;;;2.00;99.90;;;;;;6274275;22;20025;-74
2022/03/26 05:12:42;;;;;;;128.98;55.22;;;2.00;99.90;;;;;;6273567;22;20016;-73
2022/03/26 05:15:09;;;;;;;127.72;54.97;;;2.30;99.90;;;;;;6272623;22;20020;-73
2022/03/26 05:17:36;;;;;;;129.15;55.60;;;2.00;99.90;;;;;;6271859;22;20142;-78
2022/03/26 05:20:02;;;;;;;131.68;56.30;;;2.00;99.90;;;;;;6272342;22;20016;-79
2022/03/26 05:22:28;;;;;;;124.57;54.97;;;2.00;99.90;;;;;;6273856;22;20314;-77
2022/03/26 05:24:54;;;;;;;146.95;59.33;;;2.00;99.90;;;;;;6273700;22;20016;-77
2022/03/26 05:27:20;;;;;;;144.18;60.05;;;1.90;99.90;;;;;;6273873;22;20306;-78
2022/03/26 05:29:46;;;;;;;131.40;56.67;;;1.80;99.90;;;;;;6274381;22;20441;-78
2022/03/26 05:32:12;;;;;;;121.82;55.47;;;1.90;99.90;;;;;;6272090;22;20099;-79
2022/03/26 05:34:39;;;;;;;132.75;57.15;;;1.80;99.90;;;;;;6274269;22;20019;-78
2022/03/26 05:37:05;;;;;;;156.45;62.92;;;1.90;99.90;;;;;;6273652;22;20019;-78
2022/03/26 05:39:31;;;;;;;134.05;59.83;;;1.90;99.90;;;;;;6271491;22;20055;-77
2022/03/26 05:41:57;;;;;;;139.32;57.85;;;1.90;99.90;;;;;;6273506;22;20039;-78
2022/03/26 05:44:23;;;;;;;143.35;60.38;;;1.90;99.90;;;;;;6271712;22;20402;-78
2022/03/26 05:46:48;;;;;;;112.50;49.53;;;1.90;99.90;;;;;;6271645;22;20019;-76
2022/03/26 05:49:14;;;;;;;123.38;53.00;;;1.70;99.90;;;;;;6271820;22;20024;-77
2022/03/26 05:51:40;;;;;;;129.60;57.35;;;1.90;99.90;;;;;;6271418;22;20094;-79
2022/03/26 05:54:05;;;;;;;141.40;57.40;;;1.90;99.90;;;;;;6272993;22;20448;-79
2022/03/26 05:56:36;;;;;;;139.70;56.83;;;1.90;99.90;;;;;;6271647;22;20015;-78
2022/03/26 05:59:03;;;;;;;134.40;57.35;;;2.00;99.90;;;;;;6270871;22;20322;-76
2022/03/26 06:01:32;;;;;;;129.00;55.83;;;2.00;99.90;;;;;;6272999;22;20016;-76
2022/03/26 06:03:59;;;;;;;130.38;56.88;;;2.00;99.90;;;;;;6272783;22;20516;-77
2022/03/26 06:06:25;;;;;;;133.88;53.92;;;2.00;99.90;;;;;;6273471;22;20075;-78
2022/03/26 06:08:51;;;;;;;142.85;56.45;;;2.00;99.90;;;;;;6271501;22;20353;-75
2022/03/26 06:11:17;;;;;;;142.45;57.33;;;2.10;99.90;;;;;;6273113;22;20027;-78
2022/03/26 06:13:42;;;;;;;142.52;60.63;;;2.10;99.90;;;;;;6273015;22;20008;-74
2022/03/26 06:16:08;;;;;;;152.32;60.58;;;2.10;99.90;;;;;;6272644;22;20023;-73
2022/03/26 06:18:34;;;;;;;186.65;71.18;;;2.20;99.90;;;;;;6270942;22;20031;-75
2022/03/26 06:21:00;;;;;;;172.32;69.45;;;3.20;99.90;;;;;;6271124;22;20322;-74
2022/03/26 06:23:26;;;;;;;155.23;62.40;;;2.20;99.90;;;;;;6273542;22;20026;-75
2022/03/26 06:25:52;;;;;;;151.15;61.70;;;2.30;99.90;;;;;;6270616;22;20012;-77
2022/03/26 06:28:19;;;;;;;159.52;61.42;;;2.30;99.90;;;;;;6272750;22;20022;-76
2022/03/26 06:30:46;;;;;;;172.00;68.45;;;2.40;99.90;;;;;;6273322;22;20020;-76
2022/03/26 06:33:15;;;;;;;202.90;77.95;;;2.50;99.90;;;;;;6273637;22;20083;-77
2022/03/26 06:35:44;;;;;;;174.57;69.15;;;2.70;99.90;;;;;;6272436;22;20051;-73
2022/03/26 06:38:10;;;;;;;165.40;67.25;;;2.70;99.90;;;;;;6245589;22;20051;-73
2022/03/26 06:40:39;;;;;;;167.88;68.50;;;2.80;99.90;;;;;;6270909;22;20020;-75
2022/03/26 06:43:06;;;;;;;167.70;67.53;;;2.90;99.90;;;;;;6271414;22;20646;-73
2022/03/26 06:45:32;;;;;;;158.13;66.05;;;3.00;99.90;;;;;;6272251;22;20020;-74
2022/03/26 06:47:58;;;;;;;156.77;66.68;;;3.10;99.90;;;;;;6270544;22;20019;-75
2022/03/26 06:50:24;;;;;;;170.95;69.53;;;3.20;99.90;;;;;;6272951;22;20101;-74
2022/03/26 06:52:50;;;;;;;152.70;64.63;;;3.30;99.90;;;;;;6272849;22;20026;-75
2022/03/26 06:55:16;;;;;;;163.05;67.90;;;3.40;99.90;;;;;;6270726;22;20093;-77
2022/03/26 06:57:42;;;;;;;170.82;71.32;;;3.50;99.90;;;;;;6270582;22;20442;-75
2022/03/26 07:00:09;;;;;;;184.65;74.45;;;3.60;99.90;;;;;;6272088;22;20027;-74
2022/03/26 07:02:36;;;;;;;163.85;69.68;;;3.70;99.90;;;;;;6270353;22;20022;-74
2022/03/26 07:05:02;;;;;;;178.18;73.78;;;3.80;99.90;;;;;;6270573;22;20028;-74
2022/03/26 07:07:36;;;;;;;195.88;75.90;;;4.00;99.90;;;;;;5142450;27;1273131;-73
2022/03/26 07:10:03;;;;;;;244.18;86.68;;;4.10;99.90;;;;;;5148328;27;20498;-72
2022/03/26 07:12:29;;;;;;;211.75;78.03;;;4.50;99.90;;;;;;5148464;27;20039;-72
2022/03/26 07:14:55;;;;;;;209.80;80.88;;;4.50;99.90;;;;;;5148425;27;20092;-75
2022/03/26 07:17:21;;;;;;;211.57;80.85;;;4.70;99.90;;;;;;5152822;27;20763;-73
2022/03/26 07:19:47;;;;;;;241.45;85.63;;;4.90;99.90;;;;;;5165970;27;20077;-72
2022/03/26 07:22:13;;;;;;;219.65;79.43;;;5.20;99.90;;;;;;5161592;27;20117;-74
2022/03/26 07:24:38;;;;;;;245.10;88.32;;;5.40;99.90;;;;;;5129769;27;20138;-75
2022/03/26 07:27:05;;;;;;;217.63;82.15;;;5.70;99.90;;;;;;5129685;27;20657;-72
2022/03/26 07:29:32;;;;;;;218.68;83.95;;;5.80;99.90;;;;;;5158344;27;20047;-76
2022/03/26 07:31:58;;;;;;;220.68;79.88;;;6.10;99.90;;;;;;5149855;27;20048;-73
2022/03/26 07:34:26;;;;;;;196.10;76.85;;;6.20;99.90;;;;;;5168875;27;20408;-73
2022/03/26 07:36:52;;;;;;;195.18;80.65;;;6.30;99.90;;;;;;5169093;27;20758;-73
2022/03/26 07:39:18;;;;;;;194.85;76.85;;;6.50;99.90;;;;;;5148513;27;20050;-74
2022/03/26 07:41:44;;;;;;;175.57;73.97;;;6.60;99.90;;;;;;5168533;27;20048;-74
2022/03/26 07:44:09;;;;;;;184.65;74.05;;;6.80;99.90;;;;;;5168549;27;20034;-74
2022/03/26 07:46:35;;;;;;;189.45;73.13;;;6.90;99.90;;;;;;5167819;27;20458;-74
2022/03/26 07:49:01;;;;;;;176.90;73.65;;;7.10;99.90;;;;;;5149740;27;20049;-74
2022/03/26 07:51:26;;;;;;;163.70;70.88;;;7.40;99.90;;;;;;5145690;27;20052;-72
2022/03/26 07:53:52;;;;;;;154.90;66.43;;;7.60;99.90;;;;;;5168590;27;20043;-74
2022/03/26 07:56:18;;;;;;;143.90;65.30;;;7.80;99.90;;;;;;5168555;27;20061;-72
2022/03/26 07:58:44;;;;;;;152.43;65.40;;;7.90;99.90;;;;;;5148060;27;20092;-76
2022/03/26 08:01:10;;;;;;;137.10;60.65;;;8.10;99.90;;;;;;5155821;27;20370;-75
2022/03/26 08:03:36;;;;;;;132.15;60.78;;;8.20;99.90;;;;;;5167981;27;20038;-73
2022/03/26 08:06:02;;;;;;;138.32;58.20;;;8.40;99.90;;;;;;5167993;27;20057;-75
2022/03/26 08:08:28;;;;;;;127.93;57.08;;;8.60;99.90;;;;;;5149740;27;20059;-74
2022/03/26 08:10:54;;;;;;;122.45;54.40;;;8.80;99.90;;;;;;5147388;27;20054;-73
2022/03/26 08:13:20;;;;;;;116.75;54.42;;;8.80;99.90;;;;;;5147473;27;20519;-76
2022/03/26 08:15:45;;;;;;;118.75;53.78;;;9.00;99.90;;;;;;5147433;27;20042;-74
2022/03/26 08:18:11;;;;;;;116.13;53.58;;;9.20;99.90;;;;;;5137334;27;20039;-73
2022/03/26 08:20:37;;;;;;;102.35;50.13;;;10.00;99.90;;;;;;5133582;27;20054;-76
2022/03/26 08:23:02;;;;;;;113.20;50.20;;;9.50;99.90;;;;;;5134655;27;20039;-73
2022/03/26 08:28:12;;;;;;;100.75;47.55;;;9.80;99.90;;;;;;5133422;27;20059;-74
2022/03/26 08:30:39;;;;;;;96.03;45.78;;;10.00;99.90;;;;;;5114656;27;20764;-74
2022/03/26 08:33:05;;;;;;;88.78;43.60;;;10.30;99.90;;;;;;5133766;27;20051;-75
2022/03/26 08:35:35;;;;;;;93.35;44.42;;;10.50;99.90;;;;;;5133390;27;20406;-73
2022/03/26 08:38:02;;;;;;;87.82;43.05;;;10.70;99.90;;;;;;5133254;27;20081;-74
2022/03/26 08:40:27;;;;;;;90.13;41.70;;;11.00;99.90;;;;;;5133273;27;20046;-80
2022/03/26 08:42:53;;;;;;;75.00;38.75;;;11.60;99.90;;;;;;5134113;27;20031;-81
2022/03/26 08:45:19;;;;;;;74.95;40.45;;;11.70;99.90;;;;;;5132814;27;20126;-80
2022/03/26 08:47:48;;;;;;;68.22;37.08;;;11.90;99.90;;;;;;5133121;27;20085;-79
2022/03/26 08:50:14;;;;;;;69.95;37.63;;;12.20;99.90;;;;;;5133020;27;20095;-78
2022/03/26 08:52:39;;;;;;;66.80;36.58;;;12.70;99.90;;;;;;5133074;27;20133;-79
2022/03/26 08:55:06;;;;;;;62.00;34.97;;;12.70;99.90;;;;;;5142122;27;20035;-76
2022/03/26 08:57:32;;;;;;;63.70;35.30;;;13.00;99.90;;;;;;5133045;27;20036;-82
2022/03/26 08:59:58;;;;;;;59.83;34.58;;;13.20;99.90;;;;;;5132904;27;20180;-75
2022/03/26 09:02:23;;;;;;;60.63;33.80;;;13.50;99.90;;;;;;5132412;27;20398;-75
2022/03/26 09:04:49;;;;;;;67.03;34.50;;;13.80;99.90;;;;;;5098187;27;20058;-77
2022/03/26 09:07:15;;;;;;;53.25;32.75;;;14.00;99.90;;;;;;5132439;27;20063;-78
2022/03/26 09:09:41;;;;;;;58.08;33.38;;;14.20;99.90;;;;;;5132749;27;20046;-79
2022/03/26 09:12:07;;;;;;;56.35;34.13;;;14.70;99.90;;;;;;5132650;27;20406;-79
2022/03/26 09:14:33;;;;;;;61.80;33.22;;;14.60;99.90;;;;;;5133734;27;20062;-81
2022/03/26 09:16:59;;;;;;;52.67;33.20;;;14.70;99.90;;;;;;5132480;27;20386;-76
2022/03/26 09:19:25;;;;;;;51.33;31.15;;;15.50;99.90;;;;;;5132748;27;20051;-78
2022/03/26 09:21:51;;;;;;;54.13;29.10;;;15.20;99.90;;;;;;5132145;27;20035;-75
2022/03/26 09:24:17;;;;;;;43.08;27.67;;;15.60;99.90;;;;;;5133581;27;20039;-77
2022/03/26 09:26:43;;;;;;;41.58;26.30;;;15.50;99.90;;;;;;5132291;27;20047;-75
2022/03/26 09:29:09;;;;;;;44.50;25.83;;;15.70;99.90;;;;;;5131028;27;20039;-78
2022/03/26 09:31:35;;;;;;;39.67;25.17;;;15.90;99.90;;;;;;5131986;27;20126;-78
2022/03/26 09:34:01;;;;;;;45.28;26.98;;;16.20;99.90;;;;;;5132257;27;20125;-76
2022/03/26 09:36:27;;;;;;;44.08;26.40;;;16.40;99.90;;;;;;5133132;27;20043;-79
2022/03/26 09:38:52;;;;;;;36.97;24.55;;;16.80;99.90;;;;;;5114032;27;20071;-76
2022/03/26 09:41:22;;;;;;;44.53;23.75;;;16.70;99.90;;;;;;5132353;27;20134;-75
2022/03/26 09:43:49;;;;;;;43.88;26.45;;;16.90;99.90;;;;;;5133318;27;20114;-78
2022/03/26 09:46:14;;;;;;;41.85;24.45;;;16.90;99.90;;;;;;5138560;27;20101;-75
2022/03/26 09:48:41;;;;;;;37.67;22.80;;;17.10;99.90;;;;;;5151828;27;20050;-77
2022/03/26 09:51:08;;;;;;;36.50;21.95;;;17.20;99.90;;;;;;5133662;27;20054;-76
2022/03/26 09:53:34;;;;;;;37.72;21.00;;;17.40;99.90;;;;;;5150758;27;20082;-76
2022/03/26 09:56:00;;;;;;;28.65;18.13;;;17.50;99.90;;;;;;5138307;27;20452;-77
2022/03/26 09:58:26;;;;;;;22.70;14.80;;;17.50;99.90;;;;;;5131294;27;20046;-76
2022/03/26 10:00:55;;;;;;;23.25;14.13;;;17.70;99.90;;;;;;5143774;27;20078;-77
2022/03/26 10:03:21;;;;;;;20.08;13.18;;;17.70;99.90;;;;;;5131710;27;20058;-78
2022/03/26 10:05:46;;;;;;;23.27;14.32;;;17.90;99.90;;;;;;5131479;27;20047;-81
2022/03/26 10:08:19;;;;;;;26.80;15.88;;;17.90;99.90;;;;;;5112450;27;20066;-75
2022/03/26 10:10:45;;;;;;;28.27;16.67;;;18.00;99.90;;;;;;5131393;27;20485;-78
2022/03/26 10:13:12;;;;;;;30.02;15.82;;;18.00;99.90;;;;;;5147181;27;20121;-76
2022/03/26 10:15:37;;;;;;;21.77;14.73;;;18.20;99.90;;;;;;5133334;27;20102;-77
2022/03/26 10:18:10;;;;;;;22.63;14.77;;;18.10;99.90;;;;;;5133163;27;20050;-76
2022/03/26 10:20:37;;;;;;;26.13;16.67;;;18.30;99.70;;;;;;5133573;27;20479;-76
2022/03/26 10:23:03;;;;;;;29.73;16.65;;;18.50;99.90;;;;;;5133202;27;20362;-79
2022/03/26 10:25:31;;;;;;;21.25;15.00;;;18.50;99.90;;;;;;5151654;27;20091;-74
2022/03/26 10:27:57;;;;;;;23.73;13.82;;;18.60;99.90;;;;;;5115970;27;20119;-76
2022/03/26 10:33:24;;;;;;;17.17;10.82;;;18.70;99.50;;;;;;5133097;27;20051;-74
2022/03/26 10:35:58;;;;;;;22.75;9.75;;;18.90;97.50;;;;;;5133327;27;20486;-75
2022/03/26 10:38:37;;;;;;;16.88;10.45;;;19.20;97.20;;;;;;5132696;27;20845;-76
2022/03/26 10:41:08;;;;;;;21.80;10.80;;;19.00;97.00;;;;;;5151227;27;20043;-76
2022/03/26 10:43:35;;;;;;;13.15;8.68;;;19.30;98.10;;;;;;5151634;27;20086;-77
2022/03/26 10:46:01;;;;;;;19.20;9.35;;;19.40;97.50;;;;;;5151514;27;20035;-76
2022/03/26 10:48:34;;;;;;;18.33;10.82;;;19.50;96.50;;;;;;5151663;27;20043;-76
2022/03/26 10:51:06;;;;;;;13.75;7.60;;;19.50;96.50;;;;;;5151510;27;20041;-78
2022/03/26 10:53:42;;;;;;;15.00;8.60;;;19.40;95.60;;;;;;5131400;27;20118;-77
2022/03/26 10:56:13;;;;;;;15.98;8.55;;;19.50;94.00;;;;;;5139867;27;20038;-78
2022/03/26 10:58:40;;;;;;;13.18;8.05;;;19.60;95.90;;;;;;5116621;27;20051;-77
2022/03/26 11:01:06;;;;;;;14.40;7.68;;;19.80;95.80;;;;;;5130899;27;20035;-78
2022/03/26 11:03:34;;;;;;;15.32;8.57;;;19.70;95.20;;;;;;5130871;27;20066;-78
2022/03/26 11:06:01;;;;;;;12.93;7.70;;;19.90;95.20;;;;;;5130556;27;20062;-77
2022/03/26 11:08:35;;;;;;;11.30;5.72;;;20.10;94.90;;;;;;5141244;27;20528;-80
2022/03/26 11:11:06;;;;;;;10.48;5.95;;;20.00;92.60;;;;;;5151334;27;20528;-76
2022/03/26 11:13:34;;;;;;;12.30;6.00;;;20.00;92.40;;;;;;5151737;27;20050;-77
2022/03/26 11:16:03;;;;;;;9.35;5.70;;;20.20;93.00;;;;;;5133233;27;20047;-78
2022/03/26 11:18:29;;;;;;;14.07;5.80;;;19.90;92.00;;;;;;5134269;27;20382;-77
2022/03/26 11:21:06;;;;;;;14.40;6.25;;;20.10;92.10;;;;;;5112149;28;20474;-79
2022/03/26 11:23:43;;;;;;;14.23;6.10;;;20.30;91.10;;;;;;5112070;28;20104;-77
2022/03/26 11:26:23;;;;;;;10.30;6.40;;;20.30;91.60;;;;;;5111530;28;20115;-77
2022/03/26 11:28:59;;;;;;;10.13;6.47;;;20.30;91.40;;;;;;5131919;27;20031;-76
2022/03/26 11:31:28;;;;;;;12.85;7.38;;;20.50;90.60;;;;;;5111800;28;20051;-77
2022/03/26 11:34:05;;;;;;;11.63;7.50;;;20.40;91.10;;;;;;5130737;28;20763;-76
2022/03/26 11:36:32;;;;;;;10.80;7.13;;;20.30;90.40;;;;;;5149177;27;20050;-77
2022/03/26 11:39:11;;;;;;;9.60;6.70;;;20.60;92.00;;;;;;5151182;27;20505;-78
2022/03/26 11:41:38;;;;;;;15.05;6.72;;;20.60;90.30;;;;;;5130111;27;20047;-75
2022/03/26 11:44:06;;;;;;;9.15;6.15;;;20.40;91.10;;;;;;5096788;28;20031;-76
2022/03/26 11:52:38;;;;;;;9.63;5.15;;;20.60;89.10;;;;;;5130398;27;20154;-77
2022/03/26 11:55:07;;;;;;;9.60;5.40;;;20.40;89.20;;;;;;5154598;27;20038;-76
2022/03/26 11:57:32;;;;;;;9.93;5.07;;;20.70;90.30;;;;;;5154667;27;20038;-77
2022/03/26 12:00:00;;;;;;;8.93;4.70;;;20.60;89.20;;;;;;5154882;27;20486;-77
2022/03/26 12:02:36;;;;;;;7.32;4.50;;;20.60;90.30;;;;;;5155054;27;20043;-76
2022/03/26 12:08:32;;;;;;;8.52;4.68;;;20.70;90.10;;;;;;5154465;27;20054;-75
2022/03/26 12:10:58;;;;;;;11.30;4.75;;;20.70;88.00;;;;;;5151936;27;20039;-73
2022/03/26 12:13:23;;;;;;;10.57;4.53;;;21.00;89.60;;;;;;5123310;27;20053;-76
2022/03/26 12:16:03;;;;;;;6.75;3.50;;;20.80;87.90;;;;;;5154645;27;20053;-77
2022/03/26 12:18:37;;;;;;;8.63;2.92;;;21.00;87.50;;;;;;5134700;27;20043;-75
2022/03/26 12:21:21;;;;;;;5.78;3.03;;;21.10;86.70;;;;;;5115156;27;20505;-74
2022/03/26 12:23:48;;;;;;;5.82;2.70;;;21.30;84.20;;;;;;5133552;27;20047;-75
2022/03/26 12:26:13;;;;;;;5.53;3.40;;;21.50;87.60;;;;;;5134327;27;20043;-75
2022/03/26 12:28:41;;;;;;;6.13;3.67;;;21.50;84.90;;;;;;5114387;27;20482;-76
2022/03/26 12:31:13;;;;;;;6.68;3.60;;;21.40;83.80;;;;;;5133422;27;20054;-75
2022/03/26 12:33:43;;;;;;;6.82;4.07;;;21.20;82.00;;;;;;5133383;27;20083;-74
2022/03/26 12:36:10;;;;;;;5.28;2.92;;;20.80;80.80;;;;;;5134393;27;20039;-75
2022/03/26 12:38:36;;;;;;;6.10;3.28;;;21.00;83.80;;;;;;5114746;27;20059;-75
2022/03/26 12:41:04;;;;;;;6.43;4.10;;;20.90;83.80;;;;;;5133316;27;20050;-74
2022/03/26 12:43:30;;;;;;;6.00;4.07;;;21.00;84.10;;;;;;5132948;27;20043;-75